Data for 06/08/2008

Time Sea-Level Adjusted Pressure Absolute Pressure Temperature Relative Humidity Dew Point   
(mb) (inHg) (mb) (inHg) (C) (F) (%) (C) (F)
00:05 1015 29.97 844 24.92 6.3 43.4 73 1.8 35.2
00:10 1015 29.97 844 24.92 6.3 43.3 72 1.6 34.9
00:15 1015 29.97 844 24.92 6.3 43.4 70 1.3 34.3
00:20 1015 29.97 844 24.92 6.3 43.3 71 1.4 34.5
00:25 1015 29.97 844 24.92 6.2 43.2 71 1.4 34.5
00:30 1015 29.97 844 24.92 6.1 43 71 1.3 34.3
00:35 1015 29.97 844 24.92 6.1 42.9 73 1.6 34.8
00:40 1015 29.97 844 24.92 5.9 42.5 76 1.9 35.4
00:45 1015 29.97 844 24.92 5.5 41.8 78 1.9 35.4
00:50 1015 29.97 844 24.92 5.2 41.4 79 2 35.6
00:55 1015 29.97 844 24.92 5.2 41.3 81 2.2 35.9
01:00 1015 29.97 844 24.92 5 41.1 83 2.4 36.3
01:05 1015 29.97 844 24.92 4.9 40.8 84 2.5 36.5
01:10 1015 29.97 844 24.92 4.7 40.4 86 2.6 36.6
01:15 1015 29.97 844 24.92 4.5 40.2 86 2.5 36.4
01:20 1015 29.97 844 24.92 4.5 40.1 87 2.5 36.5
01:25 1015 29.97 844 24.92 4.4 39.9 87 2.4 36.4
01:30 1015 29.97 844 24.92 4.3 39.7 88 2.5 36.6
01:35 1015 29.97 844 24.92 4.2 39.6 89 2.6 36.7
01:40 1015 29.97 844 24.92 4.1 39.4 89 2.5 36.4
01:45 1015 29.97 844 24.92 4.1 39.3 90 2.6 36.7
01:50 1015 29.97 844 24.92 4 39.2 91 2.7 36.8
01:55 1015 29.97 844 24.92 4 39.2 91 2.7 36.9
02:00 1015 29.97 844 24.92 4 39.2 91 2.7 36.9
02:05 1015 29.97 844 24.92 4.1 39.4 91 2.8 37
02:10 1015 29.97 844 24.92 4.1 39.4 92 2.9 37.2
02:15 1015 29.97 844 24.92 4.2 39.5 92 2.9 37.3
02:20 1015 29.97 844 24.92 4.2 39.5 91 2.9 37.2
02:25 1015 29.97 844 24.92 4.2 39.6 92 3 37.4
02:30 1015 29.97 844 24.92 4.2 39.6 92 2.9 37.3
02:35 1015 29.97 844 24.92 4.3 39.8 91 3 37.4
02:40 1015 29.97 844 24.92 4.4 40 90 2.9 37.3
02:45 1015 29.97 844 24.92 4.5 40.2 90 3 37.4
02:50 1015 29.97 844 24.92 4.6 40.2 89 3 37.3
02:55 1015 29.97 844 24.92 4.6 40.2 90 3 37.4
03:00 1015 29.97 844 24.92 4.6 40.3 90 3 37.5
03:05 1015 29.97 844 24.92 4.6 40.3 90 3 37.4
03:10 1015 29.97 844 24.92 4.6 40.3 89 3 37.5
03:15 1015 29.97 844 24.92 4.7 40.5 89 3 37.4
03:20 1015 29.97 844 24.92 4.8 40.6 88 3 37.5
03:25 1015 29.97 844 24.92 4.8 40.7 88 3.1 37.6
03:30 1015 29.97 844 24.92 4.8 40.7 89 3.1 37.6
03:35 1015 29.97 844 24.92 4.9 40.8 89 3.2 37.8
03:40 1015 29.97 844 24.92 5 40.9 89 3.3 38
03:45 1015 29.97 844 24.92 4.8 40.7 90 3.4 38
03:50 1015 29.97 844 24.92 4.4 39.9 92 3.2 37.8
03:55 1015 29.97 844 24.92 4.2 39.5 93 3.1 37.6
04:00 1015 29.97 844 24.92 4.4 39.8 92 3.1 37.6
04:05 1015 29.97 844 24.92 4.6 40.4 91 3.2 37.8
04:10 1015 29.97 844 24.92 4.8 40.6 91 3.3 38
04:15 1015 29.97 844 24.92 4.7 40.5 91 3.5 38.2
04:20 1015 29.97 844 24.92 4.6 40.3 92 3.3 38
04:25 1015 29.97 844 24.92 4.6 40.3 92 3.4 38.1
04:30 1015 29.97 844 24.92 4.6 40.3 92 3.4 38.2
04:35 1015 29.97 844 24.92 4.6 40.3 92 3.5 38.2
04:40 1015 29.97 844 24.92 4.7 40.5 92 3.5 38.4
04:45 1015 29.97 844 24.92 4.7 40.5 92 3.6 38.5
04:50 1015 29.97 845 24.95 4.7 40.4 93 3.6 38.4
04:55 1015 29.97 845 24.95 4.7 40.5 93 3.6 38.5
05:00 1015 29.97 845 24.95 4.7 40.5 93 3.6 38.6
05:05 1015 29.97 845 24.95 4.7 40.5 93 3.6 38.5
05:10 1016 30 845 24.95 4.7 40.4 93 3.6 38.5
05:15 1016 30 845 24.95 4.7 40.5 93 3.6 38.5
05:20 1016 30 845 24.95 4.6 40.3 93 3.5 38.4
05:25 1016 30 845 24.95 4.6 40.3 93 3.5 38.4
05:30 1016 30 845 24.95 4.6 40.3 93 3.6 38.5
05:35 1016 30 845 24.95 4.5 40.2 94 3.6 38.5
05:40 1016 30 845 24.95 4.5 40.1 94 3.6 38.5
05:45 1016 30 845 24.95 4.6 40.2 94 3.7 38.6
05:50 1016 30 845 24.95 4.6 40.2 94 3.7 38.7
05:55 1016 30 845 24.95 4.5 40.2 95 3.8 38.8
06:00 1016 30 845 24.95 4.5 40.1 95 3.8 38.8
06:05 1016 30 845 24.95 4.5 40 94 3.6 38.5
06:10 1016 30 845 24.95 4.5 40.2 94 3.7 38.6
06:15 1016 30 845 24.95 4.6 40.3 94 3.7 38.6
06:20 1016 30 845 24.95 4.6 40.3 93 3.6 38.5
06:25 1016 30 845 24.95 4.7 40.4 93 3.6 38.5
06:30 1016 30 845 24.95 4.7 40.4 93 3.6 38.4
06:35 1016 30 845 24.95 4.7 40.4 93 3.6 38.5
06:40 1016 30 845 24.95 4.7 40.5 93 3.7 38.6
06:45 1016 30 845 24.95 4.6 40.3 93 3.6 38.6
06:50 1016 30 845 24.95 4.5 40.2 92 3.4 38.1
06:55 1016 30 845 24.95 4.5 40.1 92 3.3 37.9
07:00 1016 30 845 24.95 4.3 39.8 92 3.2 37.7
07:05 1016 30 845 24.95 4.3 39.8 92 3.1 37.7
07:10 1016 30 845 24.95 4.4 39.8 93 3.3 37.9
07:15 1016 30 845 24.95 4.4 39.9 93 3.4 38.1
07:20 1016 30 845 24.95 4.4 39.9 94 3.5 38.3
07:25 1016 30 846 24.98 4.4 39.9 94 3.5 38.4
07:30 1016 30 846 24.98 4.4 39.9 94 3.5 38.4
07:35 1016 30 846 24.98 4.4 39.9 94 3.6 38.4
07:40 1016 30 846 24.98 4.5 40 94 3.6 38.5
07:45 1016 30 846 24.98 4.5 40.1 94 3.7 38.6
07:50 1016 30 846 24.98 4.6 40.2 94 3.7 38.6
07:55 1016 30 846 24.98 4.7 40.4 94 3.8 38.8
08:00 1017 30.03 846 24.98 4.7 40.5 94 3.9 39
08:05 1017 30.03 846 24.98 4.8 40.6 94 3.9 39.1
08:10 1017 30.03 846 24.98 4.8 40.7 95 4 39.2
08:15 1017 30.03 846 24.98 4.8 40.7 94 4 39.2
08:20 1017 30.03 846 24.98 4.9 40.8 95 4.1 39.4
08:25 1017 30.03 846 24.98 5 40.9 94 4.1 39.4
08:30 1017 30.03 846 24.98 5.1 41.1 95 4.3 39.7
08:35 1017 30.03 846 24.98 5.2 41.3 95 4.4 39.8
08:40 1017 30.03 846 24.98 5.2 41.4 95 4.4 40
08:45 1017 30.03 846 24.98 5.3 41.5 94 4.4 40
08:50 1017 30.03 846 24.98 5.3 41.6 94 4.5 40.1
08:55 1017 30.03 846 24.98 5.4 41.7 94 4.5 40.1
09:00 1017 30.03 846 24.98 5.4 41.7 93 4.4 39.9
09:05 1017 30.03 846 24.98 5.4 41.7 93 4.3 39.8
09:10 1017 30.03 846 24.98 5.4 41.7 93 4.3 39.8
09:15 1017 30.03 846 24.98 5.5 41.8 93 4.5 40
09:20 1017 30.03 846 24.98 5.6 42 93 4.5 40.2
09:25 1017 30.03 846 24.98 5.6 42.1 93 4.7 40.4
09:30 1017 30.03 846 24.98 5.7 42.3 93 4.7 40.5
09:35 1017 30.03 846 24.98 5.8 42.5 93 4.8 40.7
09:40 1017 30.03 846 24.98 5.8 42.5 93 4.8 40.6
09:45 1017 30.03 846 24.98 5.9 42.6 93 4.8 40.7
09:50 1017 30.03 846 24.98 5.9 42.7 93 5 40.9
09:55 1017 30.03 846 24.98 6 42.8 93 4.9 40.9
10:00 1017 30.03 847 25.01 6 42.8 92 4.9 40.8
10:05 1017 30.03 847 25.01 5.9 42.7 92 4.7 40.5
10:10 1017 30.03 847 25.01 5.9 42.6 92 4.7 40.5
10:15 1017 30.03 847 25.01 6 42.7 91 4.6 40.3
10:20 1017 30.03 847 25.01 6.1 42.9 91 4.7 40.5
10:25 1017 30.03 847 25.01 6.3 43.3 90 4.8 40.7
10:30 1017 30.03 847 25.01 6.4 43.6 89 4.8 40.7
10:35 1017 30.03 847 25.01 6.5 43.7 87 4.5 40.1
10:40 1017 30.03 847 25.01 6.5 43.7 88 4.7 40.4
10:45 1018 30.06 847 25.01 6.7 44.1 88 4.8 40.7
10:50 1018 30.06 847 25.01 6.8 44.3 86 4.7 40.4
10:55 1018 30.06 847 25.01 6.9 44.4 86 4.7 40.4
11:00 1018 30.06 847 25.01 7.1 44.7 85 4.8 40.6
11:05 1018 30.06 847 25.01 7.3 45.1 85 5 41
11:10 1018 30.06 847 25.01 7.4 45.2 84 4.8 40.7
11:15 1018 30.06 847 25.01 7.3 45.2 84 4.7 40.5
11:20 1018 30.06 847 25.01 7.6 45.7 83 4.9 40.9
11:25 1018 30.06 847 25.01 7.8 46.1 82 5 41
11:30 1018 30.06 847 25.01 7.9 46.3 82 5 40.9
11:35 1018 30.06 847 25.01 7.8 46 81 4.8 40.6
11:40 1018 30.06 847 25.01 7.9 46.2 82 4.9 40.9
11:45 1018 30.06 847 25.01 8.2 46.8 80 4.9 40.8
11:50 1018 30.06 847 25.01 8.3 46.9 79 4.8 40.6
11:55 1018 30.06 847 25.01 8.4 47.1 79 5 41
12:00 1018 30.06 847 25.01 8.5 47.3 79 5.1 41.1
12:05 1018 30.06 847 25.01 8.5 47.3 78 4.8 40.7
12:10 1018 30.06 847 25.01 8.6 47.5 75 4.5 40.1
12:15 1018 30.06 847 25.01 8.8 47.9 74 4.5 40.1
12:20 1018 30.06 847 25.01 9 48.2 73 4.5 40.1
12:25 1018 30.06 847 25.01 9.1 48.3 73 4.4 39.9
12:30 1018 30.06 847 25.01 9.2 48.6 71 4.2 39.6
12:35 1018 30.06 847 25.01 9.6 49.3 71 4.5 40.2
12:40 1018 30.06 847 25.01 10 50 68 4.4 39.9
12:45 1018 30.06 847 25.01 9.9 49.8 69 4.4 39.9
12:50 1018 30.06 847 25.01 9.8 49.7 68 4.2 39.6
12:55 1018 30.06 847 25.01 10 50 66 4.1 39.3
13:00 1018 30.06 847 25.01 10.3 50.5 65 4.1 39.4
13:05 1018 30.06 847 25.01 10.2 50.4 64 3.8 38.9
13:10 1018 30.06 847 25.01 10.3 50.6 64 3.8 38.9
13:15 1018 30.06 847 25.01 10.3 50.6 64 3.8 38.8
13:20 1018 30.06 847 25.01 10.4 50.7 63 3.6 38.5
13:25 1018 30.06 847 25.01 10.4 50.7 62 3.4 38.1
13:30 1018 30.06 847 25.01 10.3 50.5 62 3.4 38.1
13:35 1018 30.06 847 25.01 10.3 50.5 63 3.6 38.4
13:40 1018 30.06 847 25.01 10.6 51 61 3.5 38.3
13:45 1018 30.06 847 25.01 10.6 51 60 3.1 37.5
13:50 1018 30.06 847 25.01 10.4 50.7 59 2.9 37.1
13:55 1018 30.06 847 25.01 9.2 48.5 74 4.8 40.7
14:00 1018 30.06 847 25.01 8.4 47 74 4 39.2
14:05 1018 30.06 847 25.01 8.4 47.1 75 4.1 39.5
14:10 1018 30.06 847 25.01 8.6 47.5 75 4.4 40
14:15 1018 30.06 847 25.01 8.4 47 81 5.2 41.4
14:20 1018 30.06 847 25.01 8.1 46.6 82 5.2 41.3
14:25 1018 30.06 847 25.01 8.1 46.6 81 5.1 41.1
14:30 1018 30.06 847 25.01 8.4 47.2 80 5.1 41.2
14:35 1018 30.06 847 25.01 8.6 47.5 79 5.1 41.2
14:40 1018 30.06 847 25.01 9 48.3 77 5.3 41.5
14:45 1018 30.06 847 25.01 9.2 48.6 76 5.2 41.4
14:50 1018 30.06 847 25.01 9.5 49 75 5.3 41.6
14:55 1018 30.06 847 25.01 9.7 49.4 74 5.3 41.5
15:00 1018 30.06 847 25.01 9.9 49.9 69 4.5 40.1
15:05 1018 30.06 847 25.01 10.2 50.4 64 3.7 38.7
15:10 1018 30.06 847 25.01 10.5 50.8 62 3.5 38.4
15:15 1018 30.06 847 25.01 10.5 51 61 3.3 38
15:20 1018 30.06 847 25.01 10.6 51.1 61 3.5 38.2
15:25 1018 30.06 847 25.01 10.6 51.1 60 3.3 37.9
15:30 1018 30.06 847 25.01 10.7 51.2 58 2.9 37.2
15:35 1018 30.06 847 25.01 10.9 51.7 57 2.9 37.2
15:40 1018 30.06 847 25.01 11.2 52.1 58 3.4 38.1
15:45 1018 30.06 847 25.01 11.2 52.2 58 3.3 37.9
15:50 1018 30.06 847 25.01 11.2 52.1 57 3.1 37.5
15:55 1018 30.06 848 25.04 11.1 52 59 3.4 38
16:00 1018 30.06 848 25.04 11 51.8 60 3.5 38.3
16:05 1018 30.06 848 25.04 11.1 51.9 59 3.5 38.2
16:10 1018 30.06 848 25.04 11.1 52 59 3.4 38.2
16:15 1018 30.06 848 25.04 11.2 52.1 58 3.3 37.9
16:20 1018 30.06 848 25.04 11.2 52.2 57 2.9 37.3
16:25 1018 30.06 848 25.04 11.4 52.5 56 3.1 37.5
16:30 1018 30.06 848 25.04 11.6 52.8 56 3 37.5
16:35 1018 30.06 848 25.04 11.6 52.9 56 3.3 38
16:40 1018 30.06 848 25.04 11.9 53.5 56 3.6 38.4
16:45 1018 30.06 848 25.04 12.1 53.8 56 3.6 38.5
16:50 1018 30.06 848 25.04 12 53.5 55 3.1 37.6
16:55 1018 30.06 848 25.04 11.9 53.3 53 2.7 36.9
17:00 1018 30.06 848 25.04 11.9 53.3 55 3.2 37.8
17:05 1018 30.06 848 25.04 11.8 53.3 55 3.2 37.7
17:10 1018 30.06 848 25.04 11.8 53.2 53 2.7 36.8
17:15 1018 30.06 848 25.04 11.7 53.1 54 2.8 37
17:20 1018 30.06 848 25.04 11.8 53.3 54 2.9 37.3
17:25 1018 30.06 848 25.04 12 53.5 53 2.6 36.7
17:30 1018 30.06 848 25.04 12.1 53.7 53 2.7 36.9
17:35 1018 30.06 848 25.04 12.1 53.7 53 2.9 37.1
17:40 1019 30.09 848 25.04 12 53.6 53 2.8 37.1
17:45 1018 30.06 848 25.04 12.2 53.9 53 3 37.4
17:50 1018 30.06 848 25.04 12.4 54.3 55 3.6 38.5
17:55 1018 30.06 848 25.04 12.4 54.3 54 3.4 38.1
18:00 1018 30.06 848 25.04 12.3 54.1 55 3.4 38.2
18:05 1018 30.06 847 25.01 12.4 54.3 54 3.4 38.2
18:10 1018 30.06 847 25.01 12.4 54.3 54 3.5 38.3
18:15 1018 30.06 847 25.01 12.6 54.7 53 3.3 37.9
18:20 1018 30.06 847 25.01 13.2 55.8 51 3.2 37.8
18:25 1018 30.06 847 25.01 13.6 56.4 51 3.6 38.4
18:30 1018 30.06 847 25.01 13.8 56.9 48 3 37.3
18:35 1018 30.06 847 25.01 13.5 56.2 48 2.7 36.9
18:40 1018 30.06 847 25.01 13 55.5 50 2.8 37.1
18:45 1018 30.06 847 25.01 12.9 55.2 50 2.9 37.2
18:50 1018 30.06 847 25.01 13.2 55.8 49 2.9 37.2
18:55 1018 30.06 847 25.01 13.4 56.1 48 2.8 37.1
19:00 1018 30.06 847 25.01 13.7 56.6 46 2.5 36.4
19:05 1018 30.06 847 25.01 13.5 56.2 46 2.1 35.9
19:10 1018 30.06 847 25.01 13.4 56.1 45 1.9 35.4
19:15 1018 30.06 847 25.01 13.5 56.3 46 2.1 35.7
19:20 1018 30.06 847 25.01 13.6 56.4 45 2 35.7
19:25 1018 30.06 847 25.01 13.1 55.6 48 2.4 36.3
19:30 1018 30.06 847 25.01 13.1 55.5 46 1.9 35.4
19:35 1018 30.06 847 25.01 13.1 55.6 45 1.4 34.6
19:40 1018 30.06 847 25.01 13 55.5 45 1.4 34.5
19:45 1018 30.06 847 25.01 13 55.3 48 2.3 36.2
19:50 1018 30.06 847 25.01 12.7 54.8 52 3 37.5
19:55 1018 30.06 847 25.01 12.2 53.9 52 2.5 36.5
20:00 1018 30.06 847 25.01 12 53.6 52 2.4 36.4
20:05 1018 30.06 847 25.01 12.1 53.7 54 3.1 37.7
20:10 1018 30.06 847 25.01 12.2 53.9 52 2.6 36.7
20:15 1018 30.06 847 25.01 12.5 54.4 49 2.1 35.8
20:20 1018 30.06 847 25.01 12.5 54.6 49 2.1 35.7
20:25 1018 30.06 847 25.01 12.5 54.5 49 2.3 36.1
20:30 1018 30.06 847 25.01 12.5 54.5 50 2.5 36.5
20:35 1018 30.06 847 25.01 12.5 54.5 51 2.8 37
20:40 1018 30.06 847 25.01 12.4 54.3 51 2.7 36.8
20:45 1018 30.06 847 25.01 12.3 54.1 51 2.5 36.6
20:50 1018 30.06 847 25.01 12.1 53.8 52 2.5 36.6
20:55 1018 30.06 847 25.01 11.9 53.5 52 2.5 36.6
21:00 1018 30.06 847 25.01 11.8 53.3 52 2.3 36.2
21:05 1018 30.06 847 25.01 11.7 53 53 2.5 36.5
21:10 1018 30.06 847 25.01 11.5 52.7 55 2.8 37.1
21:15 1018 30.06 847 25.01 11.4 52.5 57 3.2 37.7
21:20 1018 30.06 847 25.01 11.3 52.3 57 3.2 37.7
21:25 1018 30.06 847 25.01 11.2 52.2 55 2.6 36.7
21:30 1018 30.06 847 25.01 11.1 52 54 2.3 36.1
21:35 1018 30.06 847 25.01 11.1 52 56 2.7 36.9
21:40 1018 30.06 847 25.01 10.9 51.6 57 2.7 36.9
21:45 1018 30.06 848 25.04 10.6 51.1 59 2.9 37.2
21:50 1018 30.06 848 25.04 10.4 50.8 59 2.7 36.9
21:55 1018 30.06 848 25.04 10.3 50.5 60 3 37.4
22:00 1018 30.06 848 25.04 10.1 50.2 61 3 37.4
22:05 1018 30.06 848 25.04 9.8 49.7 63 3.1 37.5
22:10 1018 30.06 848 25.04 9.5 49 62 2.6 36.7
22:15 1018 30.06 848 25.04 9.3 48.7 60 2.1 35.7
22:20 1018 30.06 848 25.04 9.1 48.4 60 1.7 35.1
22:25 1018 30.06 848 25.04 8.9 48.1 59 1.4 34.5
22:30 1018 30.06 848 25.04 8.8 47.9 59 1.2 34.1
22:35 1018 30.06 848 25.04 8.7 47.7 59 1.2 34.2
22:40 1019 30.09 848 25.04 8.7 47.6 60 1.3 34.4
22:45 1019 30.09 848 25.04 8.6 47.5 61 1.4 34.6
22:50 1019 30.09 848 25.04 8.3 46.9 63 1.7 35
22:55 1019 30.09 848 25.04 7.9 46.2 64 1.6 34.8
23:00 1019 30.09 848 25.04 7.8 46.1 64 1.5 34.7
23:05 1019 30.09 848 25.04 8 46.3 63 1.3 34.4
23:10 1019 30.09 848 25.04 8.2 46.8 61 1.2 34.1
23:15 1019 30.09 848 25.04 8.3 47 61 1.4 34.5
23:20 1019 30.09 848 25.04 8.2 46.8 63 1.6 34.8
23:25 1019 30.09 848 25.04 8.1 46.5 64 1.6 34.9
23:30 1019 30.09 848 25.04 8 46.3 64 1.6 35
23:35 1019 30.09 848 25.04 7.7 45.9 65 1.7 35
23:40 1019 30.09 848 25.04 7.5 45.4 67 1.7 35.1
23:45 1019 30.09 848 25.04 7.3 45.1 67 1.6 34.9
23:50 1019 30.09 848 25.04 7.1 44.8 68 1.7 35.1
23:55 1019 30.09 848 25.04 6.7 44.1 71 1.8 35.3
24:00 1019 30.09 848 25.04 6.5 43.7 71 1.6 34.9